Time;durP1;ratioP1;P1;durP2;ratioP2;P2;SDS_P1;SDS_P2;PMS_P1;PMS_P2;Temp;Humidity;BMP_temperature;BMP_pressure;BME280_temperature;BME280_humidity;BME280_pressure;Samples;Min_cycle;Max_cycle;Signal;HPM_P1;HPM_P2
2023/07/13 00:02:19;;;;;;;2.10;1.17;;;21.90;96.30;;;;;;5094405;28;20298;-58
2023/07/13 00:04:45;;;;;;;2.22;1.00;;;21.80;96.40;;;;;;5094133;28;20223;-58
2023/07/13 00:07:14;;;;;;;3.10;1.00;;;21.70;96.50;;;;;;5093837;28;20204;-58
2023/07/13 00:09:42;;;;;;;4.72;1.30;;;21.70;96.60;;;;;;5094229;28;20370;-58
2023/07/13 00:12:25;;;;;;;3.55;1.58;;;21.60;96.70;;;;;;5094127;28;20357;-58
2023/07/13 00:14:52;;;;;;;3.10;0.95;;;21.50;96.80;;;;;;5094230;28;20205;-58
2023/07/13 00:17:18;;;;;;;5.57;1.27;;;21.40;96.90;;;;;;5093763;28;20231;-59
2023/07/13 00:19:45;;;;;;;1.88;1.25;;;21.40;97.00;;;;;;5093897;28;20204;-58
2023/07/13 00:22:12;;;;;;;2.53;1.02;;;21.30;97.10;;;;;;5093759;28;20236;-58
2023/07/13 00:24:41;;;;;;;5.20;1.33;;;21.30;97.20;;;;;;5093847;28;20231;-58
2023/07/13 00:27:09;;;;;;;3.28;1.10;;;21.20;97.20;;;;;;5092293;28;20212;-59
2023/07/13 00:29:36;;;;;;;2.90;1.27;;;21.10;97.40;;;;;;5093807;28;20246;-58
2023/07/13 00:32:03;;;;;;;4.38;1.40;;;21.10;97.90;;;;;;5094288;28;20853;-58
2023/07/13 00:34:30;;;;;;;2.38;1.30;;;21.00;98.30;;;;;;5093361;28;20580;-59
2023/07/13 00:36:57;;;;;;;4.85;1.30;;;21.00;98.70;;;;;;5093518;28;20200;-58
2023/07/13 00:39:24;;;;;;;2.15;1.30;;;20.90;99.00;;;;;;5094096;28;20212;-58
2023/07/13 00:41:51;;;;;;;2.40;1.40;;;20.90;99.20;;;;;;5093465;28;20228;-58
2023/07/13 00:44:23;;;;;;;3.78;1.35;;;20.80;99.40;;;;;;5093591;28;20224;-58
2023/07/13 00:46:50;;;;;;;2.25;1.05;;;20.80;99.60;;;;;;5093241;28;20204;-57
2023/07/13 00:49:21;;;;;;;4.35;1.05;;;20.70;99.60;;;;;;5093673;28;20208;-58
2023/07/13 00:51:51;;;;;;;2.53;1.00;;;20.70;99.70;;;;;;5093337;28;20723;-58
2023/07/13 00:54:21;;;;;;;3.17;1.27;;;20.70;99.90;;;;;;5093473;28;20231;-58
2023/07/13 00:56:51;;;;;;;1.23;0.90;;;20.70;99.90;;;;;;5092978;28;20215;-58
2023/07/13 00:59:22;;;;;;;2.90;1.08;;;20.60;99.90;;;;;;5093165;28;20208;-59
2023/07/13 01:01:49;;;;;;;3.20;1.35;;;20.60;99.90;;;;;;5093348;28;20281;-58
2023/07/13 01:04:16;;;;;;;2.03;0.85;;;20.60;99.90;;;;;;5093065;28;20215;-58
2023/07/13 01:06:44;;;;;;;1.95;1.40;;;20.50;99.90;;;;;;5092885;28;20200;-59
2023/07/13 01:09:12;;;;;;;2.53;1.20;;;20.50;99.90;;;;;;5093102;28;20238;-59
2023/07/13 01:11:38;;;;;;;2.30;1.30;;;20.50;99.90;;;;;;5092785;28;20224;-59
2023/07/13 01:14:05;;;;;;;2.80;1.10;;;20.40;99.90;;;;;;5092837;28;20204;-59
2023/07/13 01:16:35;;;;;;;1.42;1.02;;;20.30;99.90;;;;;;5092839;28;20204;-60
2023/07/13 01:19:04;;;;;;;2.05;0.90;;;20.30;99.90;;;;;;5093213;28;20204;-58
2023/07/13 01:21:34;;;;;;;2.83;1.20;;;20.30;99.90;;;;;;5092608;28;20204;-58
2023/07/13 01:24:02;;;;;;;1.75;1.30;;;20.20;99.90;;;;;;5093384;28;20204;-58
2023/07/13 01:26:29;;;;;;;6.20;1.40;;;20.20;99.90;;;;;;5092138;28;20340;-57
2023/07/13 01:28:57;;;;;;;2.17;1.20;;;20.20;99.90;;;;;;5092773;28;20212;-58
2023/07/13 01:31:24;;;;;;;3.47;1.02;;;20.10;99.90;;;;;;5092466;28;20738;-57
2023/07/13 01:33:50;;;;;;;2.95;1.30;;;20.00;99.90;;;;;;5092734;28;20489;-58
2023/07/13 01:36:17;;;;;;;4.50;1.20;;;20.00;99.90;;;;;;5092132;28;20207;-58
2023/07/13 01:38:45;;;;;;;2.85;1.30;;;19.90;99.90;;;;;;5092004;28;20670;-58
2023/07/13 01:41:12;;;;;;;2.00;1.10;;;19.90;99.90;;;;;;5092470;28;20329;-59
2023/07/13 01:43:39;;;;;;;2.97;1.20;;;19.90;99.90;;;;;;5092735;28;20716;-59
2023/07/13 01:46:06;;;;;;;3.45;1.08;;;19.80;99.90;;;;;;5092275;28;20278;-58
2023/07/13 01:48:32;;;;;;;1.95;1.00;;;19.80;99.90;;;;;;5092477;28;20216;-58
2023/07/13 01:50:59;;;;;;;3.10;1.20;;;19.80;99.90;;;;;;5092831;28;20212;-58
2023/07/13 01:53:26;;;;;;;3.20;1.23;;;19.70;99.90;;;;;;5092733;28;20228;-58
2023/07/13 01:55:54;;;;;;;5.30;1.25;;;19.70;99.90;;;;;;5093204;28;20537;-58
2023/07/13 01:58:21;;;;;;;2.88;1.27;;;19.70;99.90;;;;;;5092535;28;20226;-58
2023/07/13 02:00:49;;;;;;;4.13;1.17;;;19.70;99.90;;;;;;5092037;28;20663;-58
2023/07/13 02:03:17;;;;;;;5.10;1.48;;;19.60;99.90;;;;;;5092233;28;20224;-59
2023/07/13 02:05:44;;;;;;;4.35;1.15;;;19.60;99.90;;;;;;5092184;28;20224;-58
2023/07/13 02:08:11;;;;;;;5.20;1.50;;;19.60;99.90;;;;;;5091899;28;20208;-58
2023/07/13 02:10:38;;;;;;;2.40;1.05;;;19.50;99.90;;;;;;5092080;28;20238;-58
2023/07/13 02:13:07;;;;;;;2.38;1.20;;;19.50;99.90;;;;;;5092128;28;20228;-58
2023/07/13 02:15:34;;;;;;;2.72;1.15;;;19.50;99.90;;;;;;5092116;28;20668;-58
2023/07/13 02:18:00;;;;;;;4.43;1.10;;;19.50;99.90;;;;;;5091771;28;20660;-58
2023/07/13 02:20:27;;;;;;;2.05;1.10;;;19.40;99.90;;;;;;5091822;28;20205;-58
2023/07/13 02:22:54;;;;;;;5.18;1.33;;;19.40;99.90;;;;;;5091621;28;20236;-59
2023/07/13 02:25:21;;;;;;;4.55;1.25;;;19.30;99.90;;;;;;5092235;28;20234;-58
2023/07/13 02:27:47;;;;;;;5.30;1.35;;;19.30;99.90;;;;;;5091669;28;20227;-58
2023/07/13 02:30:16;;;;;;;1.40;1.00;;;19.30;99.90;;;;;;5091741;28;20621;-58
2023/07/13 02:32:43;;;;;;;3.97;1.38;;;19.20;99.90;;;;;;5091574;28;20228;-59
2023/07/13 02:35:10;;;;;;;1.65;1.02;;;19.20;99.90;;;;;;5091695;28;20585;-58
2023/07/13 02:37:37;;;;;;;1.45;0.95;;;19.10;99.90;;;;;;5091541;28;20207;-58
2023/07/13 02:40:08;;;;;;;3.33;1.05;;;19.10;99.90;;;;;;5091655;28;20208;-58
2023/07/13 02:42:34;;;;;;;2.03;1.20;;;19.00;99.90;;;;;;5091423;28;20224;-59
2023/07/13 02:45:01;;;;;;;3.38;1.17;;;19.00;99.90;;;;;;5091532;28;20221;-58
2023/07/13 02:47:29;;;;;;;2.92;1.40;;;19.00;99.90;;;;;;5091284;28;20210;-58
2023/07/13 02:49:56;;;;;;;4.93;1.25;;;18.90;99.90;;;;;;5091567;28;20239;-58
2023/07/13 02:52:23;;;;;;;5.13;1.27;;;18.90;99.90;;;;;;5095325;28;20773;-58
2023/07/13 02:54:50;;;;;;;1.92;1.00;;;18.80;99.90;;;;;;5095460;28;20676;-58
2023/07/13 02:57:17;;;;;;;3.10;1.30;;;18.80;99.90;;;;;;5095345;28;20204;-58
2023/07/13 02:59:43;;;;;;;2.65;1.20;;;18.80;99.90;;;;;;5095488;28;20215;-58
2023/07/13 03:02:10;;;;;;;1.88;1.05;;;18.70;99.90;;;;;;5095465;28;20716;-57
2023/07/13 03:04:39;;;;;;;4.72;1.05;;;18.70;99.90;;;;;;5095819;28;20208;-59
2023/07/13 03:07:06;;;;;;;2.90;1.13;;;18.70;99.90;;;;;;5095232;28;20227;-58
2023/07/13 03:09:35;;;;;;;5.22;1.50;;;18.70;99.90;;;;;;5095207;28;20664;-58
2023/07/13 03:12:02;;;;;;;19.02;17.05;;;18.70;99.90;;;;;;5095431;28;20232;-58
2023/07/13 03:14:30;;;;;;;2.35;1.88;;;18.60;99.90;;;;;;5095282;28;20741;-58
2023/07/13 03:16:56;;;;;;;2.97;1.70;;;18.60;99.90;;;;;;5094943;28;20291;-58
2023/07/13 03:19:23;;;;;;;3.20;1.02;;;18.60;99.90;;;;;;5095459;28;20212;-59
2023/07/13 03:21:51;;;;;;;2.75;1.50;;;18.60;99.90;;;;;;5095046;28;20653;-58
2023/07/13 03:24:18;;;;;;;2.83;1.20;;;18.50;99.90;;;;;;5095160;28;20307;-58
2023/07/13 03:26:45;;;;;;;4.50;1.45;;;18.50;99.90;;;;;;5094881;28;20224;-58
2023/07/13 03:29:11;;;;;;;4.43;1.40;;;18.50;99.90;;;;;;5094995;28;20211;-59
2023/07/13 03:31:39;;;;;;;2.28;1.05;;;18.60;99.90;;;;;;5094846;28;20235;-58
2023/07/13 03:34:05;;;;;;;3.55;1.20;;;18.70;99.90;;;;;;5095128;28;20208;-59
2023/07/13 03:36:33;;;;;;;3.92;1.40;;;18.80;99.90;;;;;;5094832;28;20200;-59
2023/07/13 03:39:03;;;;;;;3.17;1.40;;;18.90;99.90;;;;;;5095035;28;20655;-59
2023/07/13 03:41:31;;;;;;;2.78;1.27;;;19.00;99.90;;;;;;5094789;28;20208;-59
2023/07/13 03:43:58;;;;;;;6.03;1.23;;;19.10;99.90;;;;;;5094606;28;20252;-58
2023/07/13 03:46:25;;;;;;;5.72;1.38;;;19.20;99.90;;;;;;5094242;28;20596;-58
2023/07/13 03:48:51;;;;;;;3.75;1.20;;;19.30;99.90;;;;;;5094932;28;20208;-58
2023/07/13 03:51:19;;;;;;;1.88;1.10;;;19.40;99.90;;;;;;5098832;28;20622;-59
2023/07/13 03:53:48;;;;;;;3.22;1.33;;;19.50;99.90;;;;;;5094503;28;20215;-59
2023/07/13 03:56:17;;;;;;;5.28;1.48;;;19.60;99.90;;;;;;5094233;28;20306;-59
2023/07/13 03:58:46;;;;;;;4.25;1.30;;;19.60;99.90;;;;;;5094308;28;20215;-59
2023/07/13 04:01:14;;;;;;;2.85;1.00;;;19.70;99.90;;;;;;5094123;28;20273;-59
2023/07/13 04:03:41;;;;;;;4.25;1.60;;;19.80;99.90;;;;;;5094073;28;20227;-59
2023/07/13 04:06:15;;;;;;;3.53;1.25;;;19.80;99.90;;;;;;5094044;28;20227;-58
2023/07/13 04:08:42;;;;;;;4.75;1.60;;;19.80;99.90;;;;;;5094247;28;20221;-59
2023/07/13 04:11:08;;;;;;;3.50;1.25;;;19.90;99.90;;;;;;5093911;28;20231;-59
2023/07/13 04:13:36;;;;;;;4.15;1.30;;;19.90;99.90;;;;;;5094504;28;20246;-59
2023/07/13 04:16:03;;;;;;;3.40;1.35;;;20.00;99.90;;;;;;5094177;28;20200;-59
2023/07/13 04:18:30;;;;;;;5.05;1.58;;;20.00;99.90;;;;;;5093825;28;20208;-60
2023/07/13 04:20:57;;;;;;;4.75;1.48;;;20.00;99.90;;;;;;5094106;28;20587;-60
2023/07/13 04:23:24;;;;;;;3.35;1.40;;;20.00;99.90;;;;;;5093729;28;20235;-60
2023/07/13 04:25:53;;;;;;;1.95;1.38;;;19.90;99.90;;;;;;5093385;28;20241;-60
2023/07/13 04:28:21;;;;;;;3.53;1.20;;;19.90;99.90;;;;;;5093950;28;20208;-60
2023/07/13 04:30:49;;;;;;;3.75;1.25;;;19.70;99.90;;;;;;5093861;28;20279;-58
2023/07/13 04:33:16;;;;;;;3.67;1.58;;;19.60;99.90;;;;;;5093759;28;20228;-58
2023/07/13 04:35:43;;;;;;;3.70;1.42;;;19.60;99.90;;;;;;5093354;28;20291;-59
2023/07/13 04:38:11;;;;;;;2.17;1.55;;;19.50;99.90;;;;;;5093173;28;20204;-59
2023/07/13 04:40:38;;;;;;;2.90;1.20;;;19.60;99.90;;;;;;5093651;28;20303;-59
2023/07/13 04:43:05;;;;;;;2.30;1.20;;;19.70;99.90;;;;;;5093780;28;20323;-59
2023/07/13 04:45:31;;;;;;;4.32;1.30;;;19.80;99.90;;;;;;5093317;28;20204;-59
2023/07/13 04:47:59;;;;;;;3.65;1.52;;;19.90;99.90;;;;;;5093291;28;20242;-59
2023/07/13 04:50:26;;;;;;;3.40;1.50;;;20.00;99.90;;;;;;5093124;28;20219;-58
2023/07/13 04:52:53;;;;;;;3.35;1.40;;;20.10;99.90;;;;;;5093162;28;20232;-59
2023/07/13 04:55:20;;;;;;;5.80;1.70;;;20.10;99.90;;;;;;5093561;28;20208;-59
2023/07/13 04:57:47;;;;;;;3.90;1.67;;;20.10;99.90;;;;;;5092914;28;20207;-59
2023/07/13 05:00:15;;;;;;;4.38;1.60;;;20.10;99.90;;;;;;5093306;28;20212;-59
2023/07/13 05:02:45;;;;;;;2.30;1.60;;;20.00;99.90;;;;;;5092898;28;20399;-59
2023/07/13 05:05:14;;;;;;;7.28;1.60;;;19.90;99.90;;;;;;5092969;28;20660;-59
2023/07/13 05:07:40;;;;;;;6.38;1.60;;;19.80;99.90;;;;;;5093196;28;20235;-59
2023/07/13 05:10:08;;;;;;;3.70;1.48;;;19.80;99.90;;;;;;5092785;28;20209;-58
2023/07/13 05:12:35;;;;;;;5.93;1.77;;;19.70;99.90;;;;;;5092402;28;20747;-59
2023/07/13 05:15:02;;;;;;;3.65;1.80;;;19.80;99.90;;;;;;5092493;28;20281;-58
2023/07/13 05:17:29;;;;;;;4.60;1.60;;;19.90;99.90;;;;;;5092648;28;20224;-59
2023/07/13 05:19:56;;;;;;;3.20;1.80;;;20.10;99.90;;;;;;5092695;28;20215;-59
2023/07/13 05:22:24;;;;;;;7.88;1.70;;;20.40;99.90;;;;;;5092855;28;20236;-59
2023/07/13 05:24:51;;;;;;;2.55;1.73;;;20.90;99.90;;;;;;5092709;28;20265;-58
2023/07/13 05:27:17;;;;;;;4.47;1.70;;;22.00;99.90;;;;;;5092418;28;20232;-58
2023/07/13 05:29:44;;;;;;;2.95;1.42;;;23.00;99.90;;;;;;5092867;28;20204;-59
2023/07/13 05:32:11;;;;;;;6.60;1.40;;;23.70;99.90;;;;;;5092577;28;20281;-58
2023/07/13 05:34:38;;;;;;;4.55;1.83;;;24.10;99.90;;;;;;5092461;28;20628;-58
2023/07/13 05:37:05;;;;;;;3.58;1.55;;;24.60;99.90;;;;;;5092169;28;20200;-58
2023/07/13 05:39:33;;;;;;;8.70;1.98;;;24.70;99.90;;;;;;5092275;28;20687;-59
2023/07/13 05:42:00;;;;;;;9.88;5.47;;;24.70;99.30;;;;;;5092254;28;20232;-61
2023/07/13 05:44:27;;;;;;;4.32;1.90;;;24.60;97.70;;;;;;5092602;28;20574;-59
2023/07/13 05:46:54;;;;;;;7.88;2.08;;;24.50;97.10;;;;;;5091970;28;20281;-59
2023/07/13 05:49:21;;;;;;;2.92;1.60;;;24.60;96.80;;;;;;5092441;28;20299;-59
2023/07/13 05:51:48;;;;;;;5.13;2.47;;;24.60;96.40;;;;;;5092220;28;20220;-59
2023/07/13 05:54:14;;;;;;;6.03;2.10;;;24.90;96.00;;;;;;5092239;28;20261;-59
2023/07/13 05:56:43;;;;;;;4.13;2.00;;;25.00;95.60;;;;;;5091709;28;20208;-58
2023/07/13 05:59:09;;;;;;;7.05;1.98;;;25.20;95.00;;;;;;5092098;28;20262;-59
2023/07/13 06:01:36;;;;;;;2.60;1.52;;;25.30;94.10;;;;;;5092111;28;20204;-60
2023/07/13 06:04:03;;;;;;;5.13;1.40;;;25.20;94.10;;;;;;5091959;28;20605;-59
2023/07/13 06:06:30;;;;;;;6.68;2.45;;;25.00;93.80;;;;;;5091813;28;20243;-60
2023/07/13 06:08:56;;;;;;;4.85;1.88;;;24.80;93.90;;;;;;5092008;28;20266;-60
2023/07/13 06:11:26;;;;;;;2.67;1.50;;;24.80;94.00;;;;;;5091789;28;20208;-59
2023/07/13 06:13:54;;;;;;;8.35;4.25;;;24.70;93.80;;;;;;5091887;28;20208;-58
2023/07/13 06:16:21;;;;;;;2.63;1.80;;;24.90;93.70;;;;;;5091744;28;20279;-59
2023/07/13 06:18:47;;;;;;;3.63;1.88;;;25.00;93.10;;;;;;5092122;28;20232;-59
2023/07/13 06:21:16;;;;;;;5.10;2.17;;;25.50;92.90;;;;;;5092077;28;20208;-59
2023/07/13 06:23:43;;;;;;;4.75;1.60;;;26.20;92.00;;;;;;5091678;28;20592;-60
2023/07/13 06:26:11;;;;;;;4.00;1.58;;;27.10;90.40;;;;;;5091504;28;20472;-60
2023/07/13 06:28:39;;;;;;;3.85;1.55;;;28.10;85.00;;;;;;5091604;28;20204;-59
2023/07/13 06:31:09;;;;;;;2.45;1.40;;;29.30;81.00;;;;;;5092366;28;20583;-59
2023/07/13 06:33:36;;;;;;;4.30;1.40;;;30.50;76.20;;;;;;5091813;28;20654;-60
2023/07/13 06:36:03;;;;;;;2.38;1.10;;;32.30;68.80;;;;;;5091542;28;20208;-58
2023/07/13 06:38:30;;;;;;;6.25;1.50;;;33.40;64.10;;;;;;5091416;28;20200;-62
2023/07/13 06:40:57;;;;;;;1.70;1.00;;;33.10;62.80;;;;;;5091595;28;20200;-61
2023/07/13 06:43:24;;;;;;;3.70;1.20;;;32.70;63.10;;;;;;5091745;28;20633;-58
2023/07/13 06:45:51;;;;;;;2.88;1.42;;;32.40;62.80;;;;;;5091344;28;20668;-58
2023/07/13 06:48:20;;;;;;;3.28;1.20;;;32.10;62.80;;;;;;5091336;28;20220;-58
2023/07/13 06:50:49;;;;;;;5.28;1.30;;;31.70;63.20;;;;;;5091458;28;20211;-58
2023/07/13 06:53:16;;;;;;;3.33;1.30;;;31.90;63.00;;;;;;5091288;28;20232;-58
2023/07/13 06:55:45;;;;;;;4.35;1.30;;;32.80;61.70;;;;;;5090895;28;20606;-59
2023/07/13 06:58:11;;;;;;;3.17;1.30;;;34.40;58.30;;;;;;5091390;28;20623;-57
2023/07/13 07:00:40;;;;;;;2.97;1.05;;;36.30;54.70;;;;;;5091410;28;20211;-58
2023/07/13 07:03:06;;;;;;;2.55;1.00;;;37.80;52.20;;;;;;5090984;28;20302;-57
2023/07/13 07:05:34;;;;;;;2.58;1.20;;;39.10;48.80;;;;;;5091353;28;20200;-57
2023/07/13 07:08:02;;;;;;;3.33;1.17;;;40.10;46.60;;;;;;5091583;28;20654;-57
2023/07/13 07:10:31;;;;;;;2.67;1.02;;;40.30;45.00;;;;;;5091921;28;20204;-57
2023/07/13 07:12:58;;;;;;;2.90;1.30;;;40.40;44.30;;;;;;5091122;28;20314;-57
2023/07/13 07:15:26;;;;;;;2.00;1.17;;;41.10;42.60;;;;;;5091203;28;20644;-57
2023/07/13 07:17:52;;;;;;;3.17;1.30;;;41.50;40.90;;;;;;5091043;28;20257;-58
2023/07/13 07:20:20;;;;;;;3.20;1.10;;;41.50;40.80;;;;;;5091464;28;20199;-57
2023/07/13 07:22:48;;;;;;;3.78;1.38;;;41.20;41.60;;;;;;5109639;22;20307;-64
2023/07/13 07:25:15;;;;;;;3.42;1.20;;;41.60;41.20;;;;;;5071364;28;20608;-64
2023/07/13 07:27:41;;;;;;;4.30;1.48;;;42.30;40.40;;;;;;5067810;28;20454;-61
2023/07/13 07:30:09;;;;;;;4.03;1.10;;;43.00;39.50;;;;;;5070833;28;20261;-64
2023/07/13 07:32:36;;;;;;;2.83;1.10;;;43.40;38.60;;;;;;5071051;28;20220;-61
2023/07/13 07:35:03;;;;;;;2.50;1.10;;;43.70;37.80;;;;;;5070784;28;20552;-63
2023/07/13 07:37:30;;;;;;;5.90;1.40;;;44.10;36.80;;;;;;5073020;28;20211;-61
2023/07/13 07:39:59;;;;;;;1.58;0.77;;;44.00;35.90;;;;;;5074665;28;20231;-61
2023/07/13 07:42:25;;;;;;;3.78;2.50;;;42.90;37.10;;;;;;5074689;28;20282;-61
2023/07/13 07:44:52;;;;;;;2.75;1.13;;;42.60;37.40;;;;;;5074705;28;20204;-61
2023/07/13 07:47:19;;;;;;;3.72;1.20;;;41.90;37.50;;;;;;5073964;28;20265;-62
2023/07/13 07:49:46;;;;;;;2.42;1.17;;;40.50;38.50;;;;;;5074541;28;20208;-63
2023/07/13 07:52:12;;;;;;;2.55;1.40;;;40.10;38.80;;;;;;5074455;28;20640;-62
2023/07/13 07:54:39;;;;;;;2.10;1.02;;;40.00;38.00;;;;;;5074440;28;20208;-62
2023/07/13 07:57:08;;;;;;;2.55;1.02;;;40.50;38.70;;;;;;5073906;28;20641;-62
2023/07/13 07:59:34;;;;;;;4.43;1.40;;;41.10;37.70;;;;;;5074012;28;20685;-62
2023/07/13 08:02:02;;;;;;;2.78;1.10;;;41.50;37.40;;;;;;5073735;28;20204;-60
2023/07/13 08:04:29;;;;;;;3.47;1.17;;;42.10;36.50;;;;;;5073953;28;20204;-63
2023/07/13 08:06:57;;;;;;;3.35;1.08;;;42.90;35.60;;;;;;5073781;28;20247;-60
2023/07/13 08:09:24;;;;;;;2.70;1.38;;;42.90;34.80;;;;;;5073998;28;20591;-62
2023/07/13 08:11:52;;;;;;;3.17;1.02;;;42.80;35.10;;;;;;5073415;28;20208;-60
2023/07/13 08:14:20;;;;;;;2.00;0.75;;;42.60;34.10;;;;;;5073605;28;20319;-59
2023/07/13 08:16:46;;;;;;;2.75;1.13;;;41.90;34.90;;;;;;5073121;28;20200;-61
2023/07/13 08:19:13;;;;;;;1.45;0.70;;;41.80;35.90;;;;;;5073546;28;20204;-59
2023/07/13 08:21:42;;;;;;;2.92;1.23;;;42.20;34.50;;;;;;5074157;28;20231;-62
2023/07/13 08:24:09;;;;;;;3.13;1.08;;;40.90;35.60;;;;;;5073546;28;20232;-61
2023/07/13 08:26:36;;;;;;;2.20;0.93;;;39.40;36.90;;;;;;5073086;28;20254;-62
2023/07/13 08:29:03;;;;;;;3.22;1.02;;;39.10;36.70;;;;;;5073488;28;20204;-60
2023/07/13 08:31:31;;;;;;;1.90;0.82;;;38.30;37.90;;;;;;5073237;28;20208;-59
2023/07/13 08:33:58;;;;;;;4.88;1.08;;;38.60;38.00;;;;;;5073012;28;20637;-60
2023/07/13 08:36:26;;;;;;;2.92;1.02;;;39.50;37.10;;;;;;5072637;28;20266;-61
2023/07/13 08:38:53;;;;;;;1.90;0.88;;;40.70;35.70;;;;;;5073106;28;20234;-64
2023/07/13 08:41:19;;;;;;;2.13;1.02;;;41.40;35.00;;;;;;5073281;28;20215;-63
2023/07/13 08:43:49;;;;;;;2.45;0.95;;;42.30;33.80;;;;;;5073142;28;20283;-62
2023/07/13 08:46:21;;;;;;;2.15;0.98;;;42.20;33.60;;;;;;5073142;28;20236;-62
2023/07/13 08:48:53;;;;;;;2.38;1.08;;;41.80;33.60;;;;;;5072103;28;20228;-63
2023/07/13 08:51:31;;;;;;;3.35;1.17;;;40.50;34.40;;;;;;5073224;28;20710;-62
2023/07/13 08:54:02;;;;;;;3.13;1.20;;;39.20;36.20;;;;;;5072659;28;20229;-63
2023/07/13 08:56:32;;;;;;;3.90;1.40;;;37.90;37.40;;;;;;5072564;28;20208;-63
2023/07/13 08:59:04;;;;;;;2.20;0.80;;;36.60;38.30;;;;;;5072616;28;20660;-63
2023/07/13 09:01:43;;;;;;;3.03;1.20;;;34.60;40.60;;;;;;5072727;28;20209;-63
2023/07/13 09:04:16;;;;;;;2.83;1.10;;;33.20;42.40;;;;;;5072389;28;20231;-64
2023/07/13 09:06:56;;;;;;;3.85;1.25;;;31.60;44.70;;;;;;5072105;28;20661;-62
2023/07/13 09:09:38;;;;;;;3.70;1.15;;;30.30;46.40;;;;;;5072694;28;20193;-63
2023/07/13 09:12:14;;;;;;;4.18;1.40;;;29.30;48.20;;;;;;5072168;28;20231;-63
2023/07/13 09:14:46;;;;;;;3.80;1.02;;;28.50;50.10;;;;;;5072371;28;20205;-63
2023/07/13 09:17:18;;;;;;;6.00;1.48;;;28.00;51.00;;;;;;5072077;28;20209;-64
2023/07/13 09:19:50;;;;;;;3.33;1.17;;;27.80;51.20;;;;;;5072507;28;20201;-63
2023/07/13 09:22:21;;;;;;;1.65;1.02;;;27.80;51.50;;;;;;5071978;28;20695;-63
2023/07/13 09:24:54;;;;;;;2.33;1.13;;;27.70;52.10;;;;;;5071844;28;20246;-63
2023/07/13 09:27:25;;;;;;;2.47;1.48;;;27.50;51.90;;;;;;5071708;28;20676;-63
2023/07/13 09:29:57;;;;;;;4.78;1.30;;;27.30;53.10;;;;;;5072478;28;20209;-63
2023/07/13 09:32:27;;;;;;;8.27;1.23;;;27.00;53.20;;;;;;5072003;28;20608;-62
2023/07/13 09:34:56;;;;;;;4.35;1.23;;;27.00;53.20;;;;;;5072043;28;20262;-63
2023/07/13 09:37:29;;;;;;;3.80;1.38;;;27.00;53.30;;;;;;5071367;28;20216;-63
2023/07/13 09:39:57;;;;;;;3.63;1.30;;;26.90;54.60;;;;;;5072113;28;20297;-63
2023/07/13 09:42:25;;;;;;;6.07;1.33;;;27.00;54.20;;;;;;5071509;28;20235;-63
2023/07/13 09:44:55;;;;;;;5.07;1.30;;;26.90;54.80;;;;;;5071638;28;20201;-63
2023/07/13 09:47:26;;;;;;;5.03;1.70;;;27.00;54.80;;;;;;5070955;28;20220;-63
2023/07/13 09:49:58;;;;;;;4.95;1.27;;;27.10;54.40;;;;;;5072147;28;20212;-62
2023/07/13 09:52:25;;;;;;;4.10;1.45;;;27.10;54.00;;;;;;5071657;28;20239;-63
2023/07/13 09:54:58;;;;;;;3.00;1.20;;;26.90;55.10;;;;;;5071330;28;20204;-64
2023/07/13 09:57:27;;;;;;;3.25;1.10;;;26.80;54.80;;;;;;5071199;28;20216;-63
2023/07/13 09:59:56;;;;;;;6.07;1.88;;;26.80;55.10;;;;;;5070823;28;20204;-63
2023/07/13 10:02:29;;;;;;;5.43;1.50;;;26.90;54.80;;;;;;5069940;28;20201;-63
2023/07/13 10:05:03;;;;;;;4.13;1.25;;;27.10;55.00;;;;;;5070617;28;20259;-64
2023/07/13 10:07:30;;;;;;;2.72;1.30;;;27.10;53.70;;;;;;5069781;28;20272;-64
2023/07/13 10:10:00;;;;;;;4.97;1.23;;;27.10;53.70;;;;;;5070679;28;20204;-62
2023/07/13 10:12:28;;;;;;;2.72;1.13;;;27.30;53.40;;;;;;5070553;28;20262;-63
2023/07/13 10:14:57;;;;;;;2.53;1.25;;;27.60;52.80;;;;;;5070454;28;20201;-63
2023/07/13 10:17:30;;;;;;;3.60;1.15;;;28.00;51.60;;;;;;5069893;28;20233;-62
2023/07/13 10:20:04;;;;;;;4.18;1.20;;;28.20;51.90;;;;;;5070563;28;20304;-63
2023/07/13 10:22:37;;;;;;;8.23;3.40;;;28.50;51.60;;;;;;5070322;28;20232;-62
2023/07/13 10:25:18;;;;;;;4.63;1.45;;;28.70;50.20;;;;;;5070319;28;20220;-63
2023/07/13 10:27:45;;;;;;;6.25;2.90;;;28.70;50.00;;;;;;5069513;28;20708;-63
2023/07/13 10:30:17;;;;;;;7.55;1.77;;;28.40;50.90;;;;;;5070106;28;20628;-64
2023/07/13 10:32:44;;;;;;;2.90;1.20;;;28.50;50.70;;;;;;5070614;28;20377;-64
2023/07/13 10:35:15;;;;;;;5.60;1.23;;;28.70;51.10;;;;;;5069944;28;20595;-63
2023/07/13 10:37:49;;;;;;;1.45;0.95;;;29.00;50.70;;;;;;5070298;28;20543;-62
2023/07/13 10:40:20;;;;;;;4.07;1.30;;;29.10;49.70;;;;;;5070513;28;20438;-62
2023/07/13 10:42:51;;;;;;;5.07;1.30;;;29.20;50.10;;;;;;5070140;28;20224;-63
2023/07/13 10:45:20;;;;;;;7.68;1.52;;;29.30;49.40;;;;;;5070768;28;20487;-63
2023/07/13 10:47:49;;;;;;;2.97;1.27;;;29.60;50.20;;;;;;5070190;28;20338;-64
2023/07/13 10:50:21;;;;;;;5.53;2.42;;;30.00;48.70;;;;;;5070907;28;20520;-63
2023/07/13 10:52:50;;;;;;;4.30;1.52;;;30.40;48.20;;;;;;5071149;28;20235;-63
2023/07/13 10:55:33;;;;;;;3.80;1.50;;;30.70;48.00;;;;;;5070216;28;20799;-63
2023/07/13 10:58:03;;;;;;;3.15;1.30;;;30.90;47.10;;;;;;5070524;28;20236;-63
2023/07/13 11:00:34;;;;;;;3.45;1.13;;;31.10;47.40;;;;;;5070699;28;20205;-63
2023/07/13 11:03:02;;;;;;;4.88;1.33;;;31.30;47.10;;;;;;5070215;28;20336;-63
2023/07/13 11:05:34;;;;;;;4.60;1.73;;;31.40;47.40;;;;;;5069831;28;20244;-63
2023/07/13 11:08:14;;;;;;;3.30;2.10;;;31.40;47.00;;;;;;5069494;28;20331;-64
2023/07/13 11:10:50;;;;;;;3.70;1.20;;;31.20;47.00;;;;;;5070054;28;20251;-63
2023/07/13 11:13:57;;;;;;;2.65;1.10;;;31.00;47.50;;;;;;5073974;28;20367;-64
2023/07/13 11:16:47;;;;;;;2.55;1.13;;;31.00;47.10;;;;;;5073782;28;20205;-63
2023/07/13 11:19:42;;;;;;;4.32;1.33;;;30.80;47.70;;;;;;5073632;28;20657;-63
2023/07/13 11:22:17;;;;;;;4.15;1.30;;;30.70;47.50;;;;;;5067555;28;20587;-62
2023/07/13 11:25:26;;;;;;;5.03;1.15;;;30.20;48.40;;;;;;5073559;28;20712;-63
2023/07/13 11:28:04;;;;;;;3.63;1.20;;;29.80;48.80;;;;;;5072710;28;20311;-64
2023/07/13 11:30:39;;;;;;;2.83;1.10;;;29.50;49.50;;;;;;5074167;28;20299;-63
2023/07/13 11:33:19;;;;;;;4.20;1.20;;;29.60;49.50;;;;;;5074074;28;20243;-63
2023/07/13 11:35:54;;;;;;;2.35;1.15;;;29.60;48.90;;;;;;5073903;28;20216;-66
2023/07/13 11:38:29;;;;;;;4.70;1.30;;;29.70;49.60;;;;;;5073390;28;20204;-64
2023/07/13 11:40:56;;;;;;;2.13;1.05;;;29.70;48.80;;;;;;5073512;28;20204;-63
2023/07/13 11:43:24;;;;;;;3.22;1.05;;;29.50;49.50;;;;;;5073538;28;20601;-62
2023/07/13 11:45:51;;;;;;;4.80;1.20;;;29.20;49.80;;;;;;5073982;28;20217;-65
2023/07/13 11:48:31;;;;;;;6.57;1.40;;;29.00;50.10;;;;;;5073221;28;20910;-63
2023/07/13 11:51:02;;;;;;;2.85;0.93;;;28.90;49.90;;;;;;5073037;28;20560;-64
2023/07/13 11:53:37;;;;;;;2.28;1.10;;;29.20;50.30;;;;;;5073024;28;20236;-64
2023/07/13 11:56:04;;;;;;;2.95;1.00;;;29.50;49.50;;;;;;5072948;28;20215;-64
2023/07/13 11:58:31;;;;;;;4.38;1.25;;;29.70;49.90;;;;;;5073513;28;20296;-62
2023/07/13 12:01:04;;;;;;;7.55;1.40;;;29.90;49.80;;;;;;5073378;28;20245;-63
2023/07/13 12:03:32;;;;;;;2.42;1.10;;;30.10;47.60;;;;;;5073528;28;20263;-64
2023/07/13 12:06:02;;;;;;;2.05;1.27;;;30.10;47.10;;;;;;5073389;28;20406;-63
2023/07/13 12:08:31;;;;;;;4.28;1.25;;;30.30;48.30;;;;;;5073223;28;20233;-67
2023/07/13 12:11:04;;;;;;;3.17;1.05;;;30.60;48.00;;;;;;5073453;28;20200;-63
2023/07/13 12:13:37;;;;;;;3.95;1.23;;;30.90;46.70;;;;;;5073746;28;20224;-63
2023/07/13 12:16:11;;;;;;;2.00;1.00;;;31.30;46.40;;;;;;5072839;28;20200;-64
2023/07/13 12:18:38;;;;;;;2.45;1.27;;;31.60;45.50;;;;;;5073268;28;20672;-64
2023/07/13 12:21:07;;;;;;;3.88;0.90;;;31.70;45.30;;;;;;5073397;28;20201;-64
2023/07/13 12:23:36;;;;;;;3.92;1.85;;;31.80;45.60;;;;;;5073056;28;20745;-64
2023/07/13 12:26:05;;;;;;;7.35;1.65;;;31.70;46.00;;;;;;5073707;28;20201;-65
2023/07/13 12:28:34;;;;;;;3.95;1.38;;;31.80;45.90;;;;;;5073291;28;20228;-66
2023/07/13 12:31:03;;;;;;;2.70;1.38;;;31.80;45.60;;;;;;5073257;28;20207;-66
2023/07/13 12:33:32;;;;;;;3.42;1.30;;;31.50;46.70;;;;;;5073175;28;20233;-68
2023/07/13 12:36:02;;;;;;;3.63;1.40;;;31.60;46.80;;;;;;5073614;28;20224;-65
2023/07/13 12:38:29;;;;;;;2.38;0.95;;;31.90;45.80;;;;;;5073661;28;20205;-67
2023/07/13 12:40:57;;;;;;;2.92;1.45;;;32.10;46.10;;;;;;5073336;28;20209;-65
2023/07/13 12:43:27;;;;;;;2.35;1.25;;;32.30;45.80;;;;;;5073261;28;20228;-67
2023/07/13 12:45:58;;;;;;;5.75;1.13;;;32.30;45.10;;;;;;5074669;28;20213;-67
2023/07/13 12:48:25;;;;;;;4.35;1.30;;;32.20;45.40;;;;;;5074432;28;20230;-66
2023/07/13 12:50:54;;;;;;;3.40;1.00;;;31.70;44.60;;;;;;5074547;28;20201;-66
2023/07/13 12:53:24;;;;;;;5.40;1.33;;;31.30;46.10;;;;;;5073918;28;20712;-68
2023/07/13 12:55:54;;;;;;;2.47;1.10;;;31.10;46.40;;;;;;5073604;28;20640;-66
2023/07/13 12:58:28;;;;;;;4.03;1.13;;;31.00;45.80;;;;;;5079173;28;20215;-66